Salamanca, New York
Current Conditions -  °F | °C
As of 7:55 AM on Saturday 25 Oct 2014 (Local Time) from KOLE Reporting Station
Overcast Overcast  
Wind Chill: 41°   Ceiling: 2800
Heat Index: 45°   Visibility: 10mi
Dew Point: 45°   Wind: 6mph
Humidity: 100%   Direction: 240°WSW
Pressure: 29.87"   Gusts: NA
Location:  42.15°N, 78.71°W
Report Text: KOLE 251155Z AUTO 24005KT 10SM OVC028 07/07 A2987 RMK AO2
Loading
Personal Weather Stations






























Interactive Weather Map
Tropical Storm Tracking
New forecast layout! Learn more

10-Day Weather Forecast

Advertisements
Track Severe Weather on mobile